CYRQ

Trois-Rivieres Airport

ICAO Code CYRQ
IATA Code YRQ
Name Trois-Rivieres Airport
Location Trois-Rivieres, Quebec, CA
Elevation 199 Feet / 60.7 Meters
Latitude 46.35166667
Longitude -72.68055556
METAR CYRQ 080800Z AUTO 06009KT 9SM BKN096 OVC130 07/M01 A2992 RMK SLP135
Extra information Display Charts and CFS
Display NOTAMS
Runway Length Width Surface Elevation
05 9006 ft 150 ft ASP 185 ft
23 9006 ft 150 ft ASP 197 ft

Mandatory Routes

Trois-Rivieres Airport

Direction Destination Level Remark Type Route
DEP TO E H&L RNAV PESAC
DEP TO W H&L RNAV UFX
DEP TO CYUL L RNAV PESAC MISOP SILVI OMBRE OMBRE ARR